CheckWX is a tool to help pilots better visualize weather data.  It is not intended as a substitute for an official pre-flight weather briefing.

09:51:15 UTC

K4MR METAR
Melrose Gunnery Range Airport
New Mexico, USA
Current

53 mins ago

K4MR 200858Z AUTO 25013KT 10SM CLR M06/M07 A2983 RMK AO2 SLP129 T10561075 58001 TSNO $
Observed
Feb-20 @ 08:58 UTC
Wind
  • 250° at 13 KTS
Visibility
16,093 meters
Flight Rules
VFR
Cloud Levels
  • Clear skies
Temperature
-6°C / 21°F
Dewpoint
-8°C / 18°F
Humidity
86%
Altimeter
29.83" Hg
Pressure
1012.9 hPa
Previous

2 hours ago

K4MR 200758Z AUTO 24014KT 4SM BR CLR M06/M06 A2984 RMK AO2 SLP133 T10561059 TSNO $
Observed
Feb-20 @ 07:58 UTC
Wind
  • 240° at 14 KTS
Visibility
6,437 meters
Flight Rules
MVFR
Conditions
Mist
Cloud Levels
  • Clear skies
Temperature
-6°C / 21°F
Dewpoint
-6°C / 21°F
Humidity
100%
Altimeter
29.84" Hg
Pressure
1013.3 hPa
Previous

3 hours ago

K4MR 200658Z AUTO 24013KT 9SM CLR M05/M06 A2983 RMK AO2 SLP129 T10551060 410161073 TSNO $
Observed
Feb-20 @ 06:58 UTC
Wind
  • 240° at 13 KTS
Visibility
14,484 meters
Flight Rules
VFR
Cloud Levels
  • Clear skies
Temperature
-6°C / 21°F
Dewpoint
-6°C / 21°F
Humidity
100%
Altimeter
29.83" Hg
Pressure
1012.9 hPa